Flight Information

DEPARTURE
FRESNO, CA
Elevation:
335
Runways:
11R/29L - 8008x150 - ASPH-G
11L/29R - 9539x150 - ASPH-G
ATIS:
121.35
Clearance Delivery:
124.35
Ground:
121.7
Tower:
FRESNO TOWER 118.2
DESTINATION
,
Elevation:
TPA:
1000 (est.)


6803.5 NM71° True-15° Var56° HDG

Flight Plan:
(click to file on line)

1. Type
2. Aircraft Identification
3. Aircraft Type / Special Equipment
4. True Airspeed
kts
5. Departure Airport
(ICAO code)
6. Arriving Airport
(ICAO code)
7. Cruising Altitude
ft
8. Alternate Airport
(ICAO code)
9. Route of Flight
10. Remarks


00:00:00 Departure ATIS: Destination ATIS:

Clearance Limit:
Route:
Altitude: Expect in minutes
Frequency:
Transponder: (7500 Hijack / 7600 Lost Comms / 7700 Emergency)


KFAT 281153Z 00000KT 9SM CLR 21/13 A2990 RMK AO2 SLP123 T02110133 10256 20211 53002
Time: 2020-09-28T11:53:00Z
1601294969
Winds: calm
Visibility: 9.0 sm
Clouds (AGL): CLR
Temperature: 21.1 C
Dew Point: 13.3 C
Pressure: 29.899607 in Hgbr


Notes:

Data extracted from FAA Digital Chart Supplement. Effective: 0901Z Thursday, Sep 10, 2020 to 0901Z Thursday, Nov 5, 2020
Current ATIS data is provided courtisy of PilotEdge.